LiveATC.Net - Listen to live air traffic control over the Internet!


ICAO: SBCT  IATA: CWB   Airport: Afonso Pena Airport
City: Curitiba
Country: Brazil   Continent: South America
SBCT METAR Weather: SBCT 181500Z 06013KT 9999 BKN013 BKN020 15/11 Q1029
SBCT Flight Activity (FlightAware)

SBCT Gnd/Twr/App
Feed Status: UP   Listeners: 0
Listen in your browser - HTML5 player (in browser, HTML5)
Click here to listen with your own player (launches your MP3 player)
SBCT Gnd/Twr/App Audio Archives
FacilityFrequency
Curitiba Approach119.950
Curitiba Ground121.900
Curitiba Tower118.150
Curitiba Tower118.900

NOTICE

Unauthorized use prohibited. See LiveATC.net Terms of Service


Find LiveATC Audio Streams


Airport/ARTCC Code

Frequency Search
(e.g., 124.400, 128.75)
Site-wide search
 


Browse LiveATC Feeds
Top 50 LiveATC Feeds
LiveATC Feed Map
Bad Weather Areas

LiveATC FAQ
Offer LiveATC feed
Contact LiveATC.net
Press Inquiries

LiveATC on iPhone
LiveATC on Android

Windows Phone
Windows 8/10

LiveATC Mobile
(Mobile browser)

ATC Audio Archives
Interesting Recordings

LiveATC Forums


Home Page
About LiveATC.net
Make a Donation
Terms of Use
Privacy Policy

Canadian Air Freqs

AIRMETs/SIGMETs

FAA Airport Status
Nat'l Airspace Status
Arrival Demand Charts


Server Software By:
Icecast.org
Liquidsoap